createdAt,value
2022-08-07T00:02:39.860Z,72.93
2022-08-07T00:04:59.990Z,70.95
2022-08-07T00:07:27.324Z,72.32
2022-08-07T00:10:19.166Z,72.09
2022-08-07T00:12:57.740Z,72.07
2022-08-07T00:15:37.941Z,72.31
2022-08-07T00:18:19.757Z,71.75
2022-08-07T00:20:49.692Z,73.11
2022-08-07T00:23:17.258Z,73.61
2022-08-07T00:28:19.095Z,74.56
2022-08-07T00:30:49.061Z,74.72
2022-08-07T00:33:15.880Z,74.89
2022-08-07T00:35:46.483Z,74.12
2022-08-07T00:38:16.237Z,74.10
2022-08-07T00:40:58.582Z,74.68
2022-08-07T00:43:59.388Z,75.13
2022-08-07T00:46:14.256Z,74.52
2022-08-07T00:48:42.187Z,74.52
2022-08-07T00:51:10.515Z,74.67
2022-08-07T00:53:39.261Z,75.69
2022-08-07T00:56:18.724Z,74.34
2022-08-07T00:58:47.176Z,73.24
2022-08-07T01:01:18.084Z,73.14
2022-08-07T01:03:54.600Z,72.01
2022-08-07T01:06:24.513Z,72.50
2022-08-07T01:08:53.038Z,71.74
2022-08-07T01:12:09.490Z,71.90
2022-08-07T01:14:08.871Z,71.34
2022-08-07T01:16:37.153Z,70.60
2022-08-07T01:19:18.239Z,70.38
2022-08-07T01:21:53.342Z,70.53
2022-08-07T01:24:22.666Z,69.99
2022-08-07T01:26:54.081Z,70.20
2022-08-07T01:29:27.879Z,69.98
2022-08-07T01:31:59.694Z,70.84
2022-08-07T01:34:31.135Z,69.68
2022-08-07T01:36:58.737Z,69.87
2022-08-07T01:39:40.615Z,69.35
2022-08-07T01:42:38.433Z,68.34
2022-08-07T01:45:02.095Z,68.67
2022-08-07T01:48:19.413Z,69.30
2022-08-07T01:50:16.825Z,68.64
2022-08-07T01:52:58.530Z,69.30
2022-08-07T01:55:50.781Z,68.74
2022-08-07T01:58:29.500Z,68.36
2022-08-07T02:01:10.402Z,68.04
2022-08-07T02:04:00.056Z,67.11
2022-08-07T02:06:32.558Z,67.80
2022-08-07T02:09:04.220Z,68.03
2022-08-07T02:12:03.720Z,67.48
2022-08-07T02:14:35.742Z,68.47
2022-08-07T02:17:08.088Z,68.85
2022-08-07T02:20:05.311Z,69.14
2022-08-07T02:22:26.221Z,68.89
2022-08-07T02:24:57.569Z,69.41
2022-08-07T02:27:26.795Z,68.17
2022-08-07T02:30:03.951Z,67.94
2022-08-07T02:32:39.388Z,68.26
2022-08-07T02:36:28.644Z,67.41
2022-08-07T02:38:16.357Z,66.49
2022-08-07T02:40:46.444Z,66.89
2022-08-07T02:43:14.894Z,66.75
2022-08-07T02:45:58.102Z,65.32
2022-08-07T02:48:26.626Z,66.91
2022-08-07T02:50:56.172Z,65.86
2022-08-07T02:53:31.561Z,65.95
2022-08-07T02:56:12.835Z,66.13
2022-08-07T02:58:47.481Z,66.25
2022-08-07T03:01:19.139Z,66.29
2022-08-07T03:04:03.502Z,66.42
2022-08-07T03:06:36.535Z,66.18
2022-08-07T03:09:07.747Z,65.76
2022-08-07T03:11:51.729Z,65.84
2022-08-07T03:14:20.228Z,65.59
2022-08-07T03:16:52.419Z,65.52
2022-08-07T03:19:20.098Z,65.91
2022-08-07T03:21:50.586Z,66.35
2022-08-07T03:24:27.243Z,66.05
2022-08-07T03:26:59.604Z,65.83
2022-08-07T03:29:33.658Z,64.90
2022-08-07T03:32:03.335Z,65.24
2022-08-07T03:34:32.089Z,65.33
2022-08-07T03:37:12.278Z,65.26
2022-08-07T03:39:42.205Z,65.64
2022-08-07T03:42:27.343Z,66.36
2022-08-07T03:44:57.758Z,66.51
2022-08-07T03:47:27.811Z,65.47
2022-08-07T03:49:58.220Z,65.42
2022-08-07T03:52:29.492Z,66.42
2022-08-07T03:55:07.151Z,65.90
2022-08-07T03:58:33.518Z,65.82
2022-08-07T04:00:30.410Z,65.91
2022-08-07T04:03:03.830Z,65.75
2022-08-07T04:05:40.983Z,65.71
2022-08-07T04:08:16.069Z,65.68
2022-08-07T04:10:54.354Z,65.62
2022-08-07T04:14:09.403Z,65.79
2022-08-07T04:16:31.282Z,65.23
2022-08-07T04:19:04.347Z,65.32
2022-08-07T04:21:58.934Z,64.68
2022-08-07T04:24:33.790Z,65.54
2022-08-07T04:27:03.038Z,65.88
2022-08-07T04:29:48.675Z,65.44
2022-08-07T04:32:18.562Z,65.44
2022-08-07T04:35:06.290Z,65.00
2022-08-07T04:37:40.417Z,65.88
2022-08-07T04:40:22.857Z,65.84
2022-08-07T04:43:01.174Z,64.18
2022-08-07T04:45:57.860Z,63.63
2022-08-07T04:48:46.268Z,62.99
2022-08-07T04:51:39.481Z,61.35
2022-08-07T04:54:30.056Z,60.55
2022-08-07T04:58:15.000Z,59.43
2022-08-07T05:00:13.090Z,60.15
2022-08-07T05:02:53.181Z,59.47
2022-08-07T05:05:53.176Z,59.05
2022-08-07T05:08:59.260Z,58.49
2022-08-07T05:11:24.519Z,58.25
2022-08-07T05:14:53.904Z,57.54
2022-08-07T05:17:11.700Z,58.04
2022-08-07T05:19:44.863Z,56.40
2022-08-07T05:22:26.699Z,56.65
2022-08-07T05:24:57.325Z,55.55
2022-08-07T05:28:03.575Z,56.79
2022-08-07T05:30:25.082Z,54.23
2022-08-07T05:33:02.614Z,54.31
2022-08-07T05:35:41.944Z,53.79
2022-08-07T05:38:11.085Z,55.11
2022-08-07T05:40:50.718Z,52.98
2022-08-07T05:43:50.215Z,51.61
2022-08-07T05:46:07.333Z,50.28
2022-08-07T05:48:34.521Z,49.97
2022-08-07T05:51:02.206Z,48.79
2022-08-07T05:54:13.570Z,47.28
2022-08-07T05:56:20.099Z,46.76
2022-08-07T05:58:58.576Z,46.45
2022-08-07T06:01:27.588Z,47.26
2022-08-07T06:04:05.232Z,47.31
2022-08-07T06:06:34.428Z,46.56
2022-08-07T06:09:04.576Z,48.40
2022-08-07T06:11:33.863Z,45.59
2022-08-07T06:14:12.211Z,45.10
2022-08-07T06:16:50.488Z,47.51
2022-08-07T06:19:58.113Z,46.59
2022-08-07T06:22:23.026Z,44.87
2022-08-07T06:24:55.562Z,45.67
2022-08-07T06:28:00.390Z,44.66
2022-08-07T06:30:35.105Z,43.91
2022-08-07T06:32:59.551Z,45.44
2022-08-07T06:35:38.962Z,45.21
2022-08-07T06:38:20.142Z,45.04
2022-08-07T06:40:52.869Z,44.72
2022-08-07T06:43:23.582Z,44.58
2022-08-07T06:45:50.959Z,44.96
2022-08-07T06:48:24.830Z,47.21
2022-08-07T06:50:54.439Z,44.23
2022-08-07T06:54:11.922Z,44.60
2022-08-07T06:56:15.490Z,43.86
2022-08-07T07:00:11.707Z,44.55
2022-08-07T07:01:33.231Z,44.13
2022-08-07T07:04:32.784Z,42.69
2022-08-07T07:07:01.154Z,43.34
2022-08-07T07:09:30.938Z,41.98
2022-08-07T07:12:16.604Z,42.53
2022-08-07T07:14:58.207Z,40.83
2022-08-07T07:17:38.850Z,41.47
2022-08-07T07:20:25.887Z,39.22
2022-08-07T07:24:08.111Z,40.64
2022-08-07T07:26:32.658Z,36.72
2022-08-07T07:29:57.298Z,36.73
2022-08-07T07:31:47.792Z,37.57
2022-08-07T07:34:20.051Z,35.44
2022-08-07T07:36:54.011Z,36.10
2022-08-07T07:39:25.520Z,37.57
2022-08-07T07:42:08.718Z,37.54
2022-08-07T07:44:43.715Z,35.86
2022-08-07T07:47:22.727Z,36.79
2022-08-07T07:50:35.671Z,35.54
2022-08-07T07:52:42.234Z,36.56
2022-08-07T07:55:11.462Z,36.10
2022-08-07T07:57:53.439Z,36.02
2022-08-07T08:00:31.407Z,36.44
2022-08-07T08:03:16.295Z,34.27
2022-08-07T08:05:55.098Z,34.28
2022-08-07T08:08:32.405Z,34.93
2022-08-07T08:11:09.293Z,37.24
2022-08-07T08:13:54.680Z,36.61
2022-08-07T08:16:50.750Z,35.82
2022-08-07T08:20:17.030Z,37.20
2022-08-07T08:22:32.979Z,37.59
2022-08-07T08:25:41.160Z,37.64
2022-08-07T08:28:12.860Z,36.87
2022-08-07T08:30:51.508Z,36.11
2022-08-07T08:33:33.193Z,36.97
2022-08-07T08:36:01.816Z,34.68
2022-08-07T08:38:41.248Z,34.64
2022-08-07T08:41:31.491Z,36.00
2022-08-07T08:44:29.366Z,34.58
2022-08-07T08:47:15.020Z,35.42
2022-08-07T08:50:08.899Z,36.09
2022-08-07T08:52:53.680Z,35.41
2022-08-07T08:55:54.674Z,35.67
2022-08-07T08:58:47.328Z,33.96
2022-08-07T09:01:39.872Z,34.80
2022-08-07T09:04:30.222Z,35.43
2022-08-07T09:07:27.225Z,34.36
2022-08-07T09:10:11.629Z,34.39
2022-08-07T09:13:09.575Z,34.59
2022-08-07T09:16:24.061Z,35.79
2022-08-07T09:19:53.412Z,34.83
2022-08-07T09:24:28.895Z,35.55
2022-08-07T09:26:22.309Z,37.46
2022-08-07T09:30:04.214Z,35.45
2022-08-07T09:32:17.296Z,34.80
2022-08-07T09:36:02.889Z,35.49
2022-08-07T09:38:50.169Z,34.25
2022-08-07T09:42:02.994Z,34.52
2022-08-07T09:47:27.347Z,35.04
2022-08-07T09:47:56.197Z,35.62
2022-08-07T09:51:01.179Z,34.53
2022-08-07T09:53:40.889Z,34.04
2022-08-07T09:56:37.668Z,33.61
2022-08-07T09:59:37.109Z,33.88
2022-08-07T10:02:39.569Z,31.92
2022-08-07T10:05:59.902Z,33.63
2022-08-07T10:08:41.930Z,32.37
2022-08-07T10:12:02.013Z,33.41
2022-08-07T10:14:40.148Z,34.35
2022-08-07T10:18:02.558Z,34.76
2022-08-07T10:20:39.438Z,34.55
2022-08-07T10:24:06.733Z,34.43
2022-08-07T10:27:01.625Z,32.08
2022-08-07T10:30:00.718Z,31.06
2022-08-07T10:32:54.455Z,31.06
2022-08-07T10:35:53.536Z,31.21
2022-08-07T10:38:51.216Z,30.90
2022-08-07T10:41:54.635Z,29.86
2022-08-07T10:45:45.404Z,29.90
2022-08-07T10:48:07.815Z,30.55
2022-08-07T10:50:58.514Z,30.40
2022-08-07T10:53:41.842Z,31.25
2022-08-07T10:56:33.274Z,31.47
2022-08-07T10:59:21.174Z,32.87
2022-08-07T11:02:04.877Z,32.21
2022-08-07T11:05:10.039Z,33.29
2022-08-07T11:08:00.449Z,33.21
2022-08-07T11:10:32.069Z,33.53
2022-08-07T11:13:42.465Z,31.70
2022-08-07T11:15:57.359Z,30.61
2022-08-07T11:18:50.909Z,30.53
2022-08-07T11:21:45.242Z,30.17
2022-08-07T11:24:24.132Z,29.61
2022-08-07T11:27:13.515Z,29.84
2022-08-07T11:30:10.176Z,29.47
2022-08-07T11:33:15.037Z,32.23
2022-08-07T11:36:30.787Z,32.62
2022-08-07T11:39:59.346Z,32.24
2022-08-07T11:42:22.096Z,34.22
2022-08-07T11:45:38.334Z,35.91
2022-08-07T11:48:30.080Z,37.87
2022-08-07T11:51:41.142Z,37.83
2022-08-07T11:54:11.740Z,39.21
2022-08-07T11:57:03.061Z,39.09
2022-08-07T12:00:11.549Z,39.91
2022-08-07T12:02:57.884Z,40.23
2022-08-07T12:05:41.707Z,40.06
2022-08-07T12:08:26.031Z,37.96
2022-08-07T12:11:21.574Z,39.06
2022-08-07T12:14:24.632Z,36.94
2022-08-07T12:17:00.994Z,35.94
2022-08-07T12:20:02.554Z,36.50
2022-08-07T12:22:46.958Z,37.43
2022-08-07T12:26:05.473Z,38.28
2022-08-07T12:28:53.029Z,37.09
2022-08-07T12:31:52.998Z,37.61
2022-08-07T12:34:29.189Z,36.96
2022-08-07T12:36:57.707Z,35.96
2022-08-07T12:39:44.410Z,36.27
2022-08-07T12:42:17.679Z,36.87
2022-08-07T12:44:55.311Z,35.05
2022-08-07T12:47:40.544Z,36.06
2022-08-07T12:50:34.081Z,36.00
2022-08-07T12:53:27.645Z,36.19
2022-08-07T12:56:26.579Z,36.20
2022-08-07T12:58:57.943Z,37.46
2022-08-07T13:01:29.363Z,36.12
2022-08-07T13:04:31.703Z,35.86
2022-08-07T13:08:14.414Z,35.30
2022-08-07T13:10:39.757Z,36.34
2022-08-07T13:13:48.591Z,35.92
2022-08-07T13:16:30.579Z,36.23
2022-08-07T13:19:45.680Z,36.79
2022-08-07T13:22:32.812Z,37.95
2022-08-07T13:25:29.930Z,35.40
2022-08-07T13:28:18.433Z,39.60
2022-08-07T13:31:01.815Z,42.28
2022-08-07T13:34:30.479Z,44.45
2022-08-07T13:37:10.938Z,47.13
2022-08-07T13:40:35.883Z,47.26
2022-08-07T13:43:03.046Z,49.11
2022-08-07T13:46:11.254Z,50.61
2022-08-07T13:48:27.787Z,52.27
2022-08-07T13:51:27.447Z,61.61
2022-08-07T13:53:59.749Z,63.06
2022-08-07T13:56:35.401Z,65.21
2022-08-07T13:59:20.484Z,65.66
2022-08-07T14:02:12.890Z,69.50
2022-08-07T14:04:54.646Z,68.09
2022-08-07T14:07:27.963Z,70.29
2022-08-07T14:10:08.423Z,74.42
2022-08-07T14:12:54.964Z,74.58
2022-08-07T14:15:31.841Z,77.57
2022-08-07T14:18:27.565Z,81.89
2022-08-07T14:22:00.350Z,79.88
2022-08-07T14:24:05.186Z,82.59
2022-08-07T14:26:50.679Z,84.35
2022-08-07T14:30:06.340Z,83.43
2022-08-07T14:32:13.605Z,84.33
2022-08-07T14:34:46.101Z,83.47
2022-08-07T14:37:17.409Z,87.24
2022-08-07T14:40:16.275Z,86.12
2022-08-07T14:48:19.591Z,82.97
2022-08-07T14:50:56.442Z,80.13
2022-08-07T14:54:03.758Z,77.96
2022-08-07T14:56:30.142Z,79.00
2022-08-07T14:59:13.950Z,77.61
2022-08-07T15:01:58.790Z,78.67
2022-08-07T15:04:26.339Z,77.82
2022-08-07T15:06:57.228Z,78.27
2022-08-07T15:09:57.224Z,77.46
2022-08-07T15:12:25.801Z,77.64
2022-08-07T15:15:09.320Z,75.54
2022-08-07T15:17:56.699Z,76.49
2022-08-07T15:23:22.602Z,71.93
2022-08-07T15:26:11.099Z,71.62
2022-08-07T15:32:00.845Z,74.80
2022-08-07T15:34:26.113Z,76.70
2022-08-07T15:37:03.209Z,75.23
2022-08-07T15:39:56.539Z,75.27
2022-08-07T15:42:47.618Z,76.64
2022-08-07T15:45:20.789Z,75.72
2022-08-07T15:48:02.011Z,75.59
2022-08-07T15:50:37.729Z,75.97
2022-08-07T15:53:51.639Z,72.61
2022-08-07T15:56:24.122Z,71.04
2022-08-07T15:58:58.920Z,70.82
2022-08-07T16:01:39.342Z,70.09
2022-08-07T16:04:15.272Z,68.93
2022-08-07T16:06:54.445Z,69.44
2022-08-07T16:09:47.980Z,67.21
2022-08-07T16:12:28.901Z,69.52
2022-08-07T16:15:55.578Z,70.37
2022-08-07T16:18:14.299Z,72.89
2022-08-07T16:22:02.984Z,72.66
2022-08-07T16:24:33.700Z,74.62
2022-08-07T16:27:39.829Z,74.23
2022-08-07T16:30:31.085Z,75.88
2022-08-07T16:34:01.509Z,76.00
2022-08-07T16:36:22.347Z,75.50
2022-08-07T16:39:33.764Z,74.24
2022-08-07T16:42:49.767Z,73.20
2022-08-07T16:46:47.584Z,74.00
2022-08-07T16:48:27.792Z,72.31
2022-08-07T16:52:01.667Z,72.23
2022-08-07T16:54:54.359Z,72.95
2022-08-07T16:58:01.159Z,70.99
2022-08-07T17:00:30.825Z,71.25
2022-08-07T17:03:06.852Z,69.78
2022-08-07T17:06:19.636Z,70.54
2022-08-07T17:09:09.150Z,69.14
2022-08-07T17:12:33.470Z,69.37
2022-08-07T17:14:48.954Z,68.31
2022-08-07T17:17:58.851Z,67.44
2022-08-07T17:20:36.173Z,66.93
2022-08-07T17:23:33.404Z,66.42
2022-08-07T17:26:22.678Z,66.29
2022-08-07T17:30:13.027Z,65.99
2022-08-07T17:32:28.336Z,66.98
2022-08-07T17:35:51.139Z,66.33
2022-08-07T17:38:34.349Z,66.61
2022-08-07T17:42:03.010Z,67.29
2022-08-07T17:44:34.025Z,66.95
2022-08-07T17:47:08.409Z,65.49
2022-08-07T17:49:45.309Z,65.27
2022-08-07T17:52:36.418Z,65.47
2022-08-07T17:56:00.976Z,64.82
2022-08-07T17:58:46.457Z,66.06
2022-08-07T18:01:34.716Z,64.05
2022-08-07T18:04:24.663Z,64.63
2022-08-07T18:07:35.556Z,63.62
2022-08-07T18:10:32.586Z,64.42
2022-08-07T18:12:59.929Z,64.54
2022-08-07T18:15:35.663Z,64.52
2022-08-07T18:18:33.023Z,63.04
2022-08-07T18:21:37.383Z,63.16
2022-08-07T18:24:07.365Z,63.56
2022-08-07T18:26:51.886Z,62.99
2022-08-07T18:30:08.388Z,61.97
2022-08-07T18:33:15.967Z,62.55
2022-08-07T18:35:57.615Z,62.28
2022-08-07T18:38:55.560Z,61.42
2022-08-07T18:41:54.273Z,61.83
2022-08-07T18:45:44.772Z,61.23
2022-08-07T18:48:00.674Z,61.04
2022-08-07T18:50:52.618Z,60.52
2022-08-07T18:53:44.248Z,60.55
2022-08-07T18:56:30.834Z,61.35
2022-08-07T18:59:47.823Z,60.95
2022-08-07T19:02:34.403Z,61.09
2022-08-07T19:05:15.895Z,61.07
2022-08-07T19:08:05.441Z,61.37
2022-08-07T19:10:52.242Z,60.35
2022-08-07T19:13:33.545Z,61.58
2022-08-07T19:16:43.687Z,61.48
2022-08-07T19:19:50.983Z,60.80
2022-08-07T19:22:39.552Z,60.27
2022-08-07T19:26:24.611Z,60.17
2022-08-07T19:30:55.675Z,59.61
2022-08-07T19:31:41.923Z,59.40
2022-08-07T19:34:08.846Z,59.60
2022-08-07T19:36:43.310Z,58.86
2022-08-07T19:39:40.343Z,59.44
2022-08-07T19:42:24.857Z,58.94
2022-08-07T19:44:55.558Z,58.56
2022-08-07T19:47:29.070Z,58.66
2022-08-07T19:50:42.985Z,58.73
2022-08-07T19:52:58.975Z,59.60
2022-08-07T19:55:46.820Z,59.27
2022-08-07T19:58:27.937Z,59.86
2022-08-07T20:00:57.920Z,60.14
2022-08-07T20:03:34.552Z,58.87
2022-08-07T20:06:06.217Z,59.34
2022-08-07T20:08:37.650Z,59.86
2022-08-07T20:11:15.190Z,59.39
2022-08-07T20:14:03.150Z,60.27
2022-08-07T20:16:36.852Z,59.54
2022-08-07T20:19:11.886Z,59.55
2022-08-07T20:21:47.338Z,61.46
2022-08-07T20:24:24.218Z,61.40
2022-08-07T20:26:59.098Z,61.77
2022-08-07T20:29:48.093Z,61.11
2022-08-07T20:32:52.162Z,61.86
2022-08-07T20:35:26.530Z,61.81
2022-08-07T20:37:58.595Z,62.07
2022-08-07T20:40:32.249Z,62.68
2022-08-07T20:43:02.250Z,62.98
2022-08-07T20:46:27.638Z,63.13
2022-08-07T20:48:28.771Z,63.35
2022-08-07T20:50:59.700Z,64.29
2022-08-07T20:54:03.434Z,64.40
2022-08-07T20:56:16.648Z,64.85
2022-08-07T20:58:56.767Z,66.12
2022-08-07T21:01:26.371Z,67.23
2022-08-07T21:04:22.079Z,67.49
2022-08-07T21:06:53.392Z,68.79
2022-08-07T21:09:24.353Z,69.20
2022-08-07T21:11:55.779Z,69.51
2022-08-07T21:14:32.958Z,69.51
2022-08-07T21:18:02.796Z,70.13
2022-08-07T21:20:04.578Z,70.88
2022-08-07T21:22:39.745Z,71.08
2022-08-07T21:25:20.649Z,70.76
2022-08-07T21:28:08.842Z,70.22
2022-08-07T21:30:45.446Z,69.70
2022-08-07T21:33:20.304Z,68.93
2022-08-07T21:36:31.686Z,68.28
2022-08-07T21:39:45.273Z,68.53
2022-08-07T21:42:42.464Z,69.24
2022-08-07T21:46:10.554Z,69.95
2022-08-07T21:48:44.165Z,69.99
2022-08-07T21:51:25.956Z,69.09
2022-08-07T21:54:00.440Z,67.34
2022-08-07T21:56:49.081Z,66.92
2022-08-07T22:00:02.726Z,66.07
2022-08-07T22:02:27.906Z,64.65
2022-08-07T22:05:00.239Z,64.98
2022-08-07T22:07:42.901Z,63.99
2022-08-07T22:10:21.590Z,64.77
2022-08-07T22:12:55.344Z,64.51
2022-08-07T22:16:42.408Z,65.25
2022-08-07T22:18:23.863Z,64.92
2022-08-07T22:22:04.834Z,65.53
2022-08-07T22:24:50.235Z,64.40
2022-08-07T22:28:03.214Z,63.20
2022-08-07T22:30:16.008Z,62.31
2022-08-07T22:33:09.191Z,62.74
2022-08-07T22:35:49.927Z,63.21
2022-08-07T22:38:25.605Z,64.52
2022-08-07T22:41:07.444Z,66.25
2022-08-07T22:43:58.737Z,66.67
2022-08-07T22:47:09.005Z,67.67
2022-08-07T22:50:20.736Z,68.68
2022-08-07T22:54:06.686Z,68.80
2022-08-07T22:56:48.283Z,68.19
2022-08-07T22:59:49.756Z,65.27
2022-08-07T23:02:34.617Z,62.72
2022-08-07T23:06:09.013Z,62.57
2022-08-07T23:08:30.263Z,60.67
2022-08-07T23:11:15.737Z,60.15
2022-08-07T23:14:15.201Z,58.77
2022-08-07T23:16:55.894Z,57.14
2022-08-07T23:19:59.922Z,59.09
2022-08-07T23:22:39.195Z,58.30
2022-08-07T23:25:36.886Z,57.52
2022-08-07T23:28:28.896Z,57.19
2022-08-07T23:31:06.544Z,56.78
2022-08-07T23:34:34.161Z,55.80
2022-08-07T23:36:54.708Z,56.24
2022-08-07T23:39:55.379Z,55.47
2022-08-07T23:42:47.058Z,55.35
2022-08-07T23:45:50.109Z,54.31
2022-08-07T23:48:37.471Z,52.58
2022-08-07T23:53:01.445Z,52.70
2022-08-07T23:54:20.013Z,51.13
2022-08-07T23:57:42.894Z,50.12
